Flight Track Log - Related Links

Times and Time Zones

All times are in EDT time to prevent confusion due to time zone crossing. See the N2317S flight status page for this flight to view local times or setup timezone preferences in your user account.

Time Position Orientation Groundspeed Altitude Reporting Facility
EDT Latitude Longitude Course Direction KTS MPH feet Rate Location/Type
Mon 08:18:54 AM 43.6403 -73.1431 180° South 174 200 10,600  Level Boston Center
Mon 08:19:54 AM 43.5883 -73.1394 177° South 184 212 10,600  Level Boston Center
Mon 08:20:54 AM 43.5361 -73.1417 182° South 190 219 10,600 -50 Level Boston Center
Mon 08:21:54 AM 43.4842 -73.1383 177° South 190 219 10,500 -50 Descending Boston Center
Mon 08:22:54 AM 43.4342 -73.1378 180° South 196 226 10,500  Level Boston Center
Mon 08:23:54 AM 43.3797 -73.1400 182° South 196 226 10,500  Level Boston Center
Mon 08:24:00 AM 43.6391 -73.1481 180° South  Level Estimated
Mon 08:24:54 AM 43.3339 -73.1367 177° South 196 226 10,500  Level Boston Center
Mon 08:25:54 AM 43.2797 -73.1389 182° South 190 219 10,500  Level Boston Center
Mon 08:26:54 AM 43.2339 -73.1356 177° South 185 213 10,500  Level Boston Center
Mon 08:27:54 AM 43.1797 -73.1347 179° South 179 206 10,500  Level Boston Center
Mon 08:28:54 AM 43.1361 -73.1342 179° South 179 206 10,500  Level Boston Center
Mon 08:29:54 AM 43.0819 -73.1364 182° South 179 206 10,500  Level Boston Center
Mon 08:30:54 AM 43.0361 -73.1361 180° South 179 206 10,500  Level Boston Center
Mon 08:31:54 AM 42.9778 -73.1383 182° South 179 206 10,500  Level Boston Center
Mon 08:32:54 AM 42.9339 -73.1378 179° South 179 206 10,500  Level Boston Center
Mon 08:33:54 AM 42.8797 -73.1369 179° South 179 206 10,500  Level Boston Center
Mon 08:34:54 AM 42.8339 -73.1367 180° South 179 206 10,500  Level Boston Center
Mon 08:35:54 AM 42.7817 -73.1361 180° South 179 206 10,500  Level Boston Center
Mon 08:36:54 AM 42.7358 -73.1383 182° South 179 206 10,500  Level Boston Center
Mon 08:37:54 AM 42.6817 -73.1378 180° South 179 206 10,500  Level Boston Center
Mon 08:38:54 AM 42.6358 -73.1372 179° South 179 206 10,500  Level Boston Center
Mon 08:39:54 AM 42.5794 -73.1394 182° South 179 206 10,500  Level Boston Center
Mon 08:40:54 AM 42.5358 -73.1361 177° South 179 206 10,500  Level Boston Center
Mon 08:41:54 AM 42.4836 -73.1383 182° South 179 206 10,500  Level Boston Center
Mon 08:42:54 AM 42.4378 -73.1378 179° South 179 206 10,500  Level Boston Center
Mon 08:43:54 AM 42.3836 -73.1372 180° South 179 206 10,500 -50 Level Boston Center
Mon 08:44:54 AM 42.3358 -73.1394 182° South 179 206 10,400 -250 Descending Boston Center
Mon 08:45:54 AM 42.2836 -73.1417 182° South 179 206 10,000 -356 Descending Boston Center
Mon 08:46:35 AM 42.2525 -73.1386 176° South 183 211 9,800 -313 Descending Boston Center
Mon 08:47:30 AM 42.2022 -73.1408 182° South 185 213 9,500 -362 Descending Boston Center
Mon 08:48:31 AM 42.1481 -73.1372 177° South 187 215 9,100 -393 Descending Boston Center
Mon 08:49:32 AM 42.0939 -73.1394 182° South 190 219 8,700 -397 Descending Boston Center
Mon 08:50:32 AM 42.0419 -73.1389 180° South 192 221 8,300 -397 Descending Boston Center
Mon 08:51:33 AM 41.9897 -73.1411 182° South 191 220 7,900 -393 Descending Boston Center
Mon 08:52:34 AM 41.9356 -73.1406 180° South 189 217 7,500 -443 Descending Boston Center
Mon 08:53:35 AM 41.8814 -73.1400 180° South 188 216 7,000 -496 Descending Boston Center
Mon 08:54:35 AM 41.8292 -73.1422 182° South 189 217 6,500 -496 Descending Boston Center
Mon 08:55:36 AM 41.7772 -73.1417 180° South 186 214 6,000 -541 Descending Boston Center
Mon 08:56:37 AM 41.7250 -73.1439 182° South 185 213 5,400 -545 Descending Boston Center
Mon 08:57:37 AM 41.6708 -73.1350 173° South 182 209 4,900 -500 Descending Boston Center
Mon 08:59:00 AM 41.6124 -73.1339 179° South  Level FlightAware Approximate
Mon 09:06:00 AM 41.4786 -73.1352 180° South  Level Estimated
Mon 09:07:00 AM 41.4786 -73.1352 180° South  Level Estimated
Mon 09:08:00 AM 41.4786 -73.1352 180° South  Level Estimated
Mon 09:09:00 AM 41.4786 -73.1352 180° South  Level Estimated
Mon 09:10:00 AM 41.4786 -73.1352 180° South  Level Estimated
Mon 09:11:00 AM 41.4786 -73.1352 180° South  Level Estimated
Mon 09:12:00 AM 41.4786 -73.1352 180° South  Level Estimated
Mon 09:13:00 AM 41.4786 -73.1352 180° South  Level Estimated
Mon 09:14:00 AM 41.4786 -73.1352 180° South  Level Estimated
Mon 09:15:00 AM 41.4786 -73.1352 180° South  Level Estimated
Mon 09:16:00 AM 41.4786 -73.1352 180° South  Level Estimated
Mon 09:17:00 AM 41.4786 -73.1352 180° South  Level Estimated
Mon 09:18:00 AM 41.4786 -73.1352 180° South  Level Estimated
Mon 09:19:00 AM 41.4786 -73.1352 180° South  Level Estimated

Login

Don't have an account? Register now (free) for customized features, flight alerts, and more!